sensor_id;sensor_type;location;lat;lon;timestamp;P1;durP1;ratioP1;P2;durP2;ratioP2
48751;SDS011;34544;48.836;9.174;2022-11-25T00:01:14;20.52;;;8.10;;
48751;SDS011;34544;48.836;9.174;2022-11-25T00:03:41;17.10;;;8.73;;
48751;SDS011;34544;48.836;9.174;2022-11-25T00:08:38;14.38;;;8.27;;
48751;SDS011;34544;48.836;9.174;2022-11-25T00:11:05;25.00;;;9.60;;
48751;SDS011;34544;48.836;9.174;2022-11-25T00:13:31;23.67;;;8.48;;
48751;SDS011;34544;48.836;9.174;2022-11-25T00:16:01;18.20;;;7.57;;
48751;SDS011;34544;48.836;9.174;2022-11-25T00:18:28;14.50;;;7.40;;
48751;SDS011;34544;48.836;9.174;2022-11-25T00:20:54;19.65;;;7.82;;
48751;SDS011;34544;48.836;9.174;2022-11-25T00:23:21;23.02;;;8.07;;
48751;SDS011;34544;48.836;9.174;2022-11-25T00:25:46;21.23;;;8.93;;
48751;SDS011;34544;48.836;9.174;2022-11-25T00:28:12;26.30;;;10.38;;
48751;SDS011;34544;48.836;9.174;2022-11-25T00:30:38;22.58;;;7.85;;
48751;SDS011;34544;48.836;9.174;2022-11-25T00:33:03;16.65;;;7.65;;
48751;SDS011;34544;48.836;9.174;2022-11-25T00:35:29;13.07;;;7.22;;
48751;SDS011;34544;48.836;9.174;2022-11-25T00:37:55;19.45;;;7.28;;
48751;SDS011;34544;48.836;9.174;2022-11-25T00:40:20;21.05;;;10.25;;
48751;SDS011;34544;48.836;9.174;2022-11-25T00:42:46;16.75;;;8.20;;
48751;SDS011;34544;48.836;9.174;2022-11-25T00:45:30;24.10;;;8.60;;
48751;SDS011;34544;48.836;9.174;2022-11-25T00:47:56;23.38;;;8.15;;
48751;SDS011;34544;48.836;9.174;2022-11-25T00:50:22;16.85;;;8.23;;
48751;SDS011;34544;48.836;9.174;2022-11-25T00:52:47;19.63;;;8.90;;
48751;SDS011;34544;48.836;9.174;2022-11-25T00:55:13;24.25;;;8.98;;
48751;SDS011;34544;48.836;9.174;2022-11-25T00:57:39;16.30;;;8.45;;
48751;SDS011;34544;48.836;9.174;2022-11-25T01:00:05;17.75;;;8.18;;
48751;SDS011;34544;48.836;9.174;2022-11-25T01:02:31;21.50;;;9.10;;
48751;SDS011;34544;48.836;9.174;2022-11-25T01:04:57;12.70;;;7.82;;
48751;SDS011;34544;48.836;9.174;2022-11-25T01:07:22;12.32;;;8.57;;
48751;SDS011;34544;48.836;9.174;2022-11-25T01:09:48;18.02;;;8.45;;
48751;SDS011;34544;48.836;9.174;2022-11-25T01:12:14;16.20;;;8.13;;
48751;SDS011;34544;48.836;9.174;2022-11-25T01:14:40;18.23;;;9.25;;
48751;SDS011;34544;48.836;9.174;2022-11-25T01:17:06;20.88;;;8.32;;
48751;SDS011;34544;48.836;9.174;2022-11-25T01:19:32;15.65;;;8.20;;
48751;SDS011;34544;48.836;9.174;2022-11-25T01:21:58;10.48;;;7.38;;
48751;SDS011;34544;48.836;9.174;2022-11-25T01:24:24;16.67;;;8.45;;
48751;SDS011;34544;48.836;9.174;2022-11-25T01:26:52;15.85;;;8.07;;
48751;SDS011;34544;48.836;9.174;2022-11-25T01:29:20;16.60;;;8.55;;
48751;SDS011;34544;48.836;9.174;2022-11-25T01:31:46;18.52;;;10.20;;
48751;SDS011;34544;48.836;9.174;2022-11-25T01:34:20;26.77;;;12.15;;
48751;SDS011;34544;48.836;9.174;2022-11-25T01:36:47;20.10;;;11.55;;
48751;SDS011;34544;48.836;9.174;2022-11-25T01:39:23;21.20;;;10.30;;
48751;SDS011;34544;48.836;9.174;2022-11-25T01:41:49;18.33;;;11.07;;
48751;SDS011;34544;48.836;9.174;2022-11-25T01:44:16;21.90;;;9.68;;
48751;SDS011;34544;48.836;9.174;2022-11-25T01:49:18;18.90;;;9.70;;
48751;SDS011;34544;48.836;9.174;2022-11-25T01:54:18;25.35;;;10.32;;
48751;SDS011;34544;48.836;9.174;2022-11-25T01:56:58;17.27;;;9.90;;
48751;SDS011;34544;48.836;9.174;2022-11-25T01:59:28;30.55;;;10.35;;
48751;SDS011;34544;48.836;9.174;2022-11-25T02:01:56;15.00;;;9.80;;
48751;SDS011;34544;48.836;9.174;2022-11-25T02:04:24;14.52;;;8.77;;
48751;SDS011;34544;48.836;9.174;2022-11-25T02:06:56;21.05;;;9.85;;
48751;SDS011;34544;48.836;9.174;2022-11-25T02:09:28;16.60;;;9.32;;
48751;SDS011;34544;48.836;9.174;2022-11-25T02:11:54;16.60;;;9.30;;
48751;SDS011;34544;48.836;9.174;2022-11-25T02:14:21;19.90;;;10.30;;
48751;SDS011;34544;48.836;9.174;2022-11-25T02:16:50;18.38;;;9.73;;
48751;SDS011;34544;48.836;9.174;2022-11-25T02:19:23;21.67;;;9.68;;
48751;SDS011;34544;48.836;9.174;2022-11-25T02:21:57;18.50;;;9.13;;
48751;SDS011;34544;48.836;9.174;2022-11-25T02:27:09;18.23;;;9.10;;
48751;SDS011;34544;48.836;9.174;2022-11-25T02:29:34;16.63;;;9.15;;
48751;SDS011;34544;48.836;9.174;2022-11-25T02:32:04;17.17;;;9.27;;
48751;SDS011;34544;48.836;9.174;2022-11-25T02:34:30;17.95;;;9.45;;
48751;SDS011;34544;48.836;9.174;2022-11-25T02:36:57;17.42;;;9.70;;
48751;SDS011;34544;48.836;9.174;2022-11-25T02:39:23;16.67;;;9.75;;
48751;SDS011;34544;48.836;9.174;2022-11-25T02:41:50;14.43;;;9.50;;
48751;SDS011;34544;48.836;9.174;2022-11-25T02:44:19;23.25;;;9.55;;
48751;SDS011;34544;48.836;9.174;2022-11-25T02:46:45;18.05;;;8.95;;
48751;SDS011;34544;48.836;9.174;2022-11-25T02:49:11;14.10;;;8.68;;
48751;SDS011;34544;48.836;9.174;2022-11-25T02:51:40;19.27;;;9.90;;
48751;SDS011;34544;48.836;9.174;2022-11-25T02:54:08;18.55;;;10.38;;
48751;SDS011;34544;48.836;9.174;2022-11-25T02:56:35;18.77;;;9.85;;
48751;SDS011;34544;48.836;9.174;2022-11-25T02:59:01;19.25;;;9.70;;
48751;SDS011;34544;48.836;9.174;2022-11-25T03:01:28;22.55;;;10.18;;
48751;SDS011;34544;48.836;9.174;2022-11-25T03:03:55;17.38;;;10.02;;
48751;SDS011;34544;48.836;9.174;2022-11-25T03:06:21;23.55;;;11.48;;
48751;SDS011;34544;48.836;9.174;2022-11-25T03:08:47;16.20;;;10.10;;
48751;SDS011;34544;48.836;9.174;2022-11-25T03:11:13;16.33;;;9.68;;
48751;SDS011;34544;48.836;9.174;2022-11-25T03:13:39;20.90;;;10.60;;
48751;SDS011;34544;48.836;9.174;2022-11-25T03:16:05;20.55;;;11.45;;
48751;SDS011;34544;48.836;9.174;2022-11-25T03:18:31;25.05;;;9.43;;
48751;SDS011;34544;48.836;9.174;2022-11-25T03:20:57;17.52;;;9.18;;
48751;SDS011;34544;48.836;9.174;2022-11-25T03:23:23;18.58;;;9.63;;
48751;SDS011;34544;48.836;9.174;2022-11-25T03:25:52;20.23;;;9.80;;
48751;SDS011;34544;48.836;9.174;2022-11-25T03:28:18;16.92;;;10.00;;
48751;SDS011;34544;48.836;9.174;2022-11-25T03:30:44;20.85;;;9.85;;
48751;SDS011;34544;48.836;9.174;2022-11-25T03:33:10;19.73;;;9.23;;
48751;SDS011;34544;48.836;9.174;2022-11-25T03:35:36;19.90;;;10.40;;
48751;SDS011;34544;48.836;9.174;2022-11-25T03:38:02;17.27;;;9.43;;
48751;SDS011;34544;48.836;9.174;2022-11-25T03:40:32;17.33;;;10.02;;
48751;SDS011;34544;48.836;9.174;2022-11-25T03:42:58;19.27;;;9.85;;
48751;SDS011;34544;48.836;9.174;2022-11-25T03:45:24;20.85;;;10.77;;
48751;SDS011;34544;48.836;9.174;2022-11-25T03:47:49;22.63;;;11.52;;
48751;SDS011;34544;48.836;9.174;2022-11-25T03:50:16;19.42;;;10.45;;
48751;SDS011;34544;48.836;9.174;2022-11-25T03:52:43;20.48;;;9.65;;
48751;SDS011;34544;48.836;9.174;2022-11-25T03:55:09;17.63;;;10.55;;
48751;SDS011;34544;48.836;9.174;2022-11-25T03:57:38;17.92;;;9.43;;
48751;SDS011;34544;48.836;9.174;2022-11-25T04:00:05;19.77;;;9.68;;
48751;SDS011;34544;48.836;9.174;2022-11-25T04:02:43;16.17;;;10.52;;
48751;SDS011;34544;48.836;9.174;2022-11-25T04:05:09;16.92;;;10.20;;
48751;SDS011;34544;48.836;9.174;2022-11-25T04:07:35;18.30;;;10.63;;
48751;SDS011;34544;48.836;9.174;2022-11-25T04:10:01;18.27;;;10.40;;
48751;SDS011;34544;48.836;9.174;2022-11-25T04:12:30;16.67;;;9.48;;
48751;SDS011;34544;48.836;9.174;2022-11-25T04:15:13;19.10;;;10.88;;
48751;SDS011;34544;48.836;9.174;2022-11-25T04:17:40;20.05;;;10.15;;
48751;SDS011;34544;48.836;9.174;2022-11-25T04:20:06;20.65;;;11.05;;
48751;SDS011;34544;48.836;9.174;2022-11-25T04:22:32;21.65;;;10.63;;
48751;SDS011;34544;48.836;9.174;2022-11-25T04:25:01;21.50;;;10.07;;
48751;SDS011;34544;48.836;9.174;2022-11-25T04:27:27;23.48;;;12.25;;
48751;SDS011;34544;48.836;9.174;2022-11-25T04:29:53;18.63;;;11.05;;
48751;SDS011;34544;48.836;9.174;2022-11-25T04:32:20;19.42;;;10.65;;
48751;SDS011;34544;48.836;9.174;2022-11-25T04:34:47;30.08;;;14.02;;
48751;SDS011;34544;48.836;9.174;2022-11-25T04:37:13;23.38;;;13.63;;
48751;SDS011;34544;48.836;9.174;2022-11-25T04:39:39;25.98;;;14.68;;
48751;SDS011;34544;48.836;9.174;2022-11-25T04:42:13;25.95;;;16.10;;
48751;SDS011;34544;48.836;9.174;2022-11-25T04:45:02;25.20;;;13.60;;
48751;SDS011;34544;48.836;9.174;2022-11-25T04:47:30;21.48;;;13.25;;
48751;SDS011;34544;48.836;9.174;2022-11-25T04:49:56;22.70;;;12.27;;
48751;SDS011;34544;48.836;9.174;2022-11-25T04:52:22;23.90;;;12.75;;
48751;SDS011;34544;48.836;9.174;2022-11-25T04:54:48;22.90;;;12.15;;
48751;SDS011;34544;48.836;9.174;2022-11-25T04:57:15;19.33;;;11.55;;
48751;SDS011;34544;48.836;9.174;2022-11-25T04:59:43;14.90;;;9.55;;
48751;SDS011;34544;48.836;9.174;2022-11-25T05:04:42;22.30;;;9.75;;
48751;SDS011;34544;48.836;9.174;2022-11-25T05:07:11;19.83;;;10.68;;
48751;SDS011;34544;48.836;9.174;2022-11-25T05:09:39;18.95;;;10.40;;
48751;SDS011;34544;48.836;9.174;2022-11-25T05:12:17;14.40;;;9.48;;
48751;SDS011;34544;48.836;9.174;2022-11-25T05:14:44;14.50;;;8.82;;
48751;SDS011;34544;48.836;9.174;2022-11-25T05:17:14;26.27;;;10.93;;
48751;SDS011;34544;48.836;9.174;2022-11-25T05:19:42;27.50;;;11.98;;
48751;SDS011;34544;48.836;9.174;2022-11-25T05:22:09;16.38;;;10.35;;
48751;SDS011;34544;48.836;9.174;2022-11-25T05:24:36;17.80;;;11.07;;
48751;SDS011;34544;48.836;9.174;2022-11-25T05:27:02;18.08;;;10.88;;
48751;SDS011;34544;48.836;9.174;2022-11-25T05:29:28;24.60;;;10.63;;
48751;SDS011;34544;48.836;9.174;2022-11-25T05:31:54;20.17;;;10.90;;
48751;SDS011;34544;48.836;9.174;2022-11-25T05:34:20;17.20;;;10.13;;
48751;SDS011;34544;48.836;9.174;2022-11-25T05:36:46;30.83;;;10.73;;
48751;SDS011;34544;48.836;9.174;2022-11-25T05:39:12;23.15;;;10.00;;
48751;SDS011;34544;48.836;9.174;2022-11-25T05:41:58;15.68;;;9.80;;
48751;SDS011;34544;48.836;9.174;2022-11-25T05:44:23;25.80;;;9.82;;
48751;SDS011;34544;48.836;9.174;2022-11-25T05:46:51;20.35;;;10.23;;
48751;SDS011;34544;48.836;9.174;2022-11-25T05:49:17;22.35;;;10.27;;
48751;SDS011;34544;48.836;9.174;2022-11-25T05:51:43;20.83;;;10.65;;
48751;SDS011;34544;48.836;9.174;2022-11-25T05:54:10;23.52;;;11.15;;
48751;SDS011;34544;48.836;9.174;2022-11-25T05:56:39;23.23;;;11.00;;
48751;SDS011;34544;48.836;9.174;2022-11-25T05:59:23;18.13;;;10.43;;
48751;SDS011;34544;48.836;9.174;2022-11-25T06:02:04;19.63;;;9.75;;
48751;SDS011;34544;48.836;9.174;2022-11-25T06:04:30;18.88;;;11.13;;
48751;SDS011;34544;48.836;9.174;2022-11-25T06:06:56;21.60;;;10.95;;
48751;SDS011;34544;48.836;9.174;2022-11-25T06:09:21;18.25;;;12.55;;
48751;SDS011;34544;48.836;9.174;2022-11-25T06:11:48;23.17;;;12.27;;
48751;SDS011;34544;48.836;9.174;2022-11-25T06:14:14;27.65;;;14.32;;
48751;SDS011;34544;48.836;9.174;2022-11-25T06:16:42;27.70;;;15.27;;
48751;SDS011;34544;48.836;9.174;2022-11-25T06:19:19;23.55;;;12.65;;
48751;SDS011;34544;48.836;9.174;2022-11-25T06:21:47;25.67;;;13.20;;
48751;SDS011;34544;48.836;9.174;2022-11-25T06:24:13;25.75;;;12.32;;
48751;SDS011;34544;48.836;9.174;2022-11-25T06:26:42;23.35;;;11.80;;
48751;SDS011;34544;48.836;9.174;2022-11-25T06:29:11;25.25;;;12.68;;
48751;SDS011;34544;48.836;9.174;2022-11-25T06:31:38;31.05;;;14.07;;
48751;SDS011;34544;48.836;9.174;2022-11-25T06:34:22;20.30;;;12.52;;
48751;SDS011;34544;48.836;9.174;2022-11-25T06:36:49;21.63;;;13.25;;
48751;SDS011;34544;48.836;9.174;2022-11-25T06:39:14;20.90;;;13.00;;
48751;SDS011;34544;48.836;9.174;2022-11-25T06:41:40;21.27;;;11.40;;
48751;SDS011;34544;48.836;9.174;2022-11-25T06:44:05;23.95;;;12.15;;
48751;SDS011;34544;48.836;9.174;2022-11-25T06:46:31;20.30;;;11.73;;
48751;SDS011;34544;48.836;9.174;2022-11-25T06:48:58;21.05;;;11.55;;
48751;SDS011;34544;48.836;9.174;2022-11-25T06:51:24;21.85;;;10.88;;
48751;SDS011;34544;48.836;9.174;2022-11-25T06:53:50;21.80;;;11.15;;
48751;SDS011;34544;48.836;9.174;2022-11-25T06:58:45;18.80;;;11.30;;
48751;SDS011;34544;48.836;9.174;2022-11-25T07:01:21;19.42;;;10.10;;
48751;SDS011;34544;48.836;9.174;2022-11-25T07:03:49;17.30;;;10.57;;
48751;SDS011;34544;48.836;9.174;2022-11-25T07:06:16;20.08;;;10.32;;
48751;SDS011;34544;48.836;9.174;2022-11-25T07:08:44;21.55;;;11.50;;
48751;SDS011;34544;48.836;9.174;2022-11-25T07:13:43;16.83;;;11.45;;
48751;SDS011;34544;48.836;9.174;2022-11-25T07:16:10;14.55;;;10.40;;
48751;SDS011;34544;48.836;9.174;2022-11-25T07:18:36;20.27;;;10.85;;
48751;SDS011;34544;48.836;9.174;2022-11-25T07:21:03;22.25;;;10.43;;
48751;SDS011;34544;48.836;9.174;2022-11-25T07:23:34;16.38;;;9.77;;
48751;SDS011;34544;48.836;9.174;2022-11-25T07:26:02;20.70;;;11.10;;
48751;SDS011;34544;48.836;9.174;2022-11-25T07:28:32;14.80;;;9.57;;
48751;SDS011;34544;48.836;9.174;2022-11-25T07:31:08;11.73;;;9.13;;
48751;SDS011;34544;48.836;9.174;2022-11-25T07:33:43;15.07;;;8.98;;
48751;SDS011;34544;48.836;9.174;2022-11-25T07:36:10;13.25;;;8.82;;
48751;SDS011;34544;48.836;9.174;2022-11-25T07:38:37;23.92;;;9.82;;
48751;SDS011;34544;48.836;9.174;2022-11-25T07:41:07;15.70;;;8.48;;
48751;SDS011;34544;48.836;9.174;2022-11-25T07:43:35;13.45;;;7.53;;
48751;SDS011;34544;48.836;9.174;2022-11-25T07:48:59;15.25;;;7.68;;
48751;SDS011;34544;48.836;9.174;2022-11-25T07:54:12;15.40;;;8.15;;
48751;SDS011;34544;48.836;9.174;2022-11-25T07:56:39;16.63;;;8.55;;
48751;SDS011;34544;48.836;9.174;2022-11-25T07:59:07;16.95;;;8.73;;
48751;SDS011;34544;48.836;9.174;2022-11-25T08:01:36;22.60;;;13.88;;
48751;SDS011;34544;48.836;9.174;2022-11-25T08:04:01;25.33;;;14.25;;
48751;SDS011;34544;48.836;9.174;2022-11-25T08:06:27;22.38;;;13.45;;
48751;SDS011;34544;48.836;9.174;2022-11-25T08:08:54;17.27;;;10.30;;
48751;SDS011;34544;48.836;9.174;2022-11-25T08:11:22;22.30;;;10.25;;
48751;SDS011;34544;48.836;9.174;2022-11-25T08:13:55;17.40;;;11.90;;
48751;SDS011;34544;48.836;9.174;2022-11-25T08:16:22;17.30;;;10.05;;
48751;SDS011;34544;48.836;9.174;2022-11-25T08:18:52;23.15;;;15.18;;
48751;SDS011;34544;48.836;9.174;2022-11-25T08:21:18;19.55;;;13.23;;
48751;SDS011;34544;48.836;9.174;2022-11-25T08:23:45;26.65;;;16.23;;
48751;SDS011;34544;48.836;9.174;2022-11-25T08:26:33;23.52;;;16.30;;
48751;SDS011;34544;48.836;9.174;2022-11-25T08:29:02;16.13;;;9.30;;
48751;SDS011;34544;48.836;9.174;2022-11-25T08:31:35;12.43;;;7.75;;
48751;SDS011;34544;48.836;9.174;2022-11-25T08:34:02;11.27;;;7.50;;
48751;SDS011;34544;48.836;9.174;2022-11-25T08:36:29;12.98;;;6.95;;
48751;SDS011;34544;48.836;9.174;2022-11-25T08:38:56;14.23;;;6.32;;
48751;SDS011;34544;48.836;9.174;2022-11-25T08:41:34;15.90;;;6.72;;
48751;SDS011;34544;48.836;9.174;2022-11-25T08:44:01;11.95;;;6.65;;
48751;SDS011;34544;48.836;9.174;2022-11-25T08:46:31;9.13;;;6.15;;
48751;SDS011;34544;48.836;9.174;2022-11-25T08:49:00;10.25;;;6.03;;
48751;SDS011;34544;48.836;9.174;2022-11-25T08:51:32;11.88;;;5.95;;
48751;SDS011;34544;48.836;9.174;2022-11-25T08:53:59;11.32;;;6.07;;
48751;SDS011;34544;48.836;9.174;2022-11-25T08:56:26;8.10;;;5.47;;
48751;SDS011;34544;48.836;9.174;2022-11-25T08:58:53;13.23;;;5.75;;
48751;SDS011;34544;48.836;9.174;2022-11-25T09:01:19;9.98;;;5.97;;
48751;SDS011;34544;48.836;9.174;2022-11-25T09:03:47;24.30;;;6.78;;
48751;SDS011;34544;48.836;9.174;2022-11-25T09:06:14;11.70;;;5.05;;
48751;SDS011;34544;48.836;9.174;2022-11-25T09:08:40;11.85;;;5.38;;
48751;SDS011;34544;48.836;9.174;2022-11-25T09:11:06;10.70;;;5.72;;
48751;SDS011;34544;48.836;9.174;2022-11-25T09:13:33;9.18;;;5.65;;
48751;SDS011;34544;48.836;9.174;2022-11-25T09:15:58;11.27;;;5.93;;
48751;SDS011;34544;48.836;9.174;2022-11-25T09:18:26;11.00;;;5.32;;
48751;SDS011;34544;48.836;9.174;2022-11-25T09:20:54;9.95;;;5.10;;
48751;SDS011;34544;48.836;9.174;2022-11-25T09:23:21;15.82;;;5.22;;
48751;SDS011;34544;48.836;9.174;2022-11-25T09:25:51;10.35;;;5.30;;
48751;SDS011;34544;48.836;9.174;2022-11-25T09:28:18;8.40;;;4.85;;
48751;SDS011;34544;48.836;9.174;2022-11-25T09:30:44;8.57;;;4.97;;
48751;SDS011;34544;48.836;9.174;2022-11-25T09:33:09;9.73;;;6.10;;
48751;SDS011;34544;48.836;9.174;2022-11-25T09:35:35;8.95;;;5.35;;
48751;SDS011;34544;48.836;9.174;2022-11-25T09:38:01;8.68;;;4.13;;
48751;SDS011;34544;48.836;9.174;2022-11-25T09:43:50;10.77;;;5.40;;
48751;SDS011;34544;48.836;9.174;2022-11-25T09:46:18;6.80;;;5.35;;
48751;SDS011;34544;48.836;9.174;2022-11-25T09:54:24;12.48;;;5.30;;
48751;SDS011;34544;48.836;9.174;2022-11-25T09:56:57;12.25;;;5.95;;
48751;SDS011;34544;48.836;9.174;2022-11-25T09:59:33;7.47;;;5.60;;
48751;SDS011;34544;48.836;9.174;2022-11-25T10:02:11;12.10;;;6.18;;
48751;SDS011;34544;48.836;9.174;2022-11-25T10:04:46;7.53;;;4.95;;
48751;SDS011;34544;48.836;9.174;2022-11-25T10:07:19;7.93;;;5.70;;
48751;SDS011;34544;48.836;9.174;2022-11-25T10:09:52;14.35;;;5.63;;
48751;SDS011;34544;48.836;9.174;2022-11-25T10:12:29;9.60;;;5.10;;
48751;SDS011;34544;48.836;9.174;2022-11-25T10:18:00;6.43;;;4.80;;
48751;SDS011;34544;48.836;9.174;2022-11-25T10:20:33;10.48;;;5.28;;
48751;SDS011;34544;48.836;9.174;2022-11-25T10:23:03;12.05;;;5.85;;
48751;SDS011;34544;48.836;9.174;2022-11-25T10:25:32;10.18;;;5.53;;
48751;SDS011;34544;48.836;9.174;2022-11-25T10:28:21;8.73;;;6.00;;
48751;SDS011;34544;48.836;9.174;2022-11-25T10:33:42;10.18;;;6.10;;
48751;SDS011;34544;48.836;9.174;2022-11-25T10:36:20;13.15;;;6.35;;
48751;SDS011;34544;48.836;9.174;2022-11-25T10:39:12;9.35;;;4.30;;
48751;SDS011;34544;48.836;9.174;2022-11-25T10:44:36;10.02;;;5.60;;
48751;SDS011;34544;48.836;9.174;2022-11-25T10:49:37;10.13;;;5.95;;
48751;SDS011;34544;48.836;9.174;2022-11-25T10:52:09;9.27;;;5.43;;
48751;SDS011;34544;48.836;9.174;2022-11-25T10:54:37;17.10;;;9.50;;
48751;SDS011;34544;48.836;9.174;2022-11-25T10:57:14;14.02;;;8.35;;
48751;SDS011;34544;48.836;9.174;2022-11-25T10:59:53;16.45;;;7.50;;
48751;SDS011;34544;48.836;9.174;2022-11-25T11:02:24;13.13;;;6.60;;
48751;SDS011;34544;48.836;9.174;2022-11-25T11:05:01;10.40;;;6.10;;
48751;SDS011;34544;48.836;9.174;2022-11-25T11:07:41;13.13;;;6.43;;
48751;SDS011;34544;48.836;9.174;2022-11-25T11:10:16;13.65;;;6.22;;
48751;SDS011;34544;48.836;9.174;2022-11-25T11:15:27;17.70;;;6.97;;
48751;SDS011;34544;48.836;9.174;2022-11-25T11:18:13;11.33;;;7.20;;
48751;SDS011;34544;48.836;9.174;2022-11-25T11:20:56;12.20;;;7.25;;
48751;SDS011;34544;48.836;9.174;2022-11-25T11:23:24;9.30;;;6.10;;
48751;SDS011;34544;48.836;9.174;2022-11-25T11:28:26;9.15;;;5.65;;
48751;SDS011;34544;48.836;9.174;2022-11-25T11:31:17;10.25;;;5.68;;
48751;SDS011;34544;48.836;9.174;2022-11-25T11:41:51;9.38;;;3.88;;
48751;SDS011;34544;48.836;9.174;2022-11-25T11:44:29;8.02;;;3.53;;
48751;SDS011;34544;48.836;9.174;2022-11-25T11:50:22;8.35;;;3.70;;
48751;SDS011;34544;48.836;9.174;2022-11-25T11:55:35;8.75;;;3.10;;
48751;SDS011;34544;48.836;9.174;2022-11-25T12:03:33;7.82;;;3.08;;
48751;SDS011;34544;48.836;9.174;2022-11-25T12:06:03;7.00;;;3.45;;
48751;SDS011;34544;48.836;9.174;2022-11-25T12:11:15;12.18;;;4.22;;
48751;SDS011;34544;48.836;9.174;2022-11-25T12:13:47;14.93;;;4.00;;
48751;SDS011;34544;48.836;9.174;2022-11-25T12:16:30;10.45;;;3.22;;
48751;SDS011;34544;48.836;9.174;2022-11-25T12:19:05;7.55;;;3.92;;
48751;SDS011;34544;48.836;9.174;2022-11-25T12:26:57;12.18;;;6.05;;
48751;SDS011;34544;48.836;9.174;2022-11-25T12:35:32;7.72;;;4.13;;
48751;SDS011;34544;48.836;9.174;2022-11-25T12:40:23;5.55;;;4.00;;
48751;SDS011;34544;48.836;9.174;2022-11-25T12:42:51;17.23;;;7.32;;
48751;SDS011;34544;48.836;9.174;2022-11-25T12:45:24;16.98;;;9.23;;
48751;SDS011;34544;48.836;9.174;2022-11-25T12:47:50;17.67;;;9.63;;
48751;SDS011;34544;48.836;9.174;2022-11-25T12:50:19;21.42;;;10.07;;
48751;SDS011;34544;48.836;9.174;2022-11-25T12:53:30;19.77;;;9.30;;
48751;SDS011;34544;48.836;9.174;2022-11-25T12:56:11;21.65;;;10.95;;
48751;SDS011;34544;48.836;9.174;2022-11-25T12:59:18;17.25;;;8.68;;
48751;SDS011;34544;48.836;9.174;2022-11-25T13:02:00;10.10;;;5.82;;
48751;SDS011;34544;48.836;9.174;2022-11-25T13:04:44;10.13;;;4.70;;
48751;SDS011;34544;48.836;9.174;2022-11-25T13:07:23;12.38;;;6.43;;
48751;SDS011;34544;48.836;9.174;2022-11-25T13:13:02;8.60;;;3.45;;
48751;SDS011;34544;48.836;9.174;2022-11-25T13:15:49;8.43;;;4.00;;
48751;SDS011;34544;48.836;9.174;2022-11-25T13:18:23;9.18;;;4.20;;
48751;SDS011;34544;48.836;9.174;2022-11-25T13:20:53;13.10;;;6.30;;
48751;SDS011;34544;48.836;9.174;2022-11-25T13:23:23;10.90;;;4.30;;
48751;SDS011;34544;48.836;9.174;2022-11-25T13:25:51;11.63;;;4.70;;
48751;SDS011;34544;48.836;9.174;2022-11-25T13:28:37;11.90;;;4.35;;
48751;SDS011;34544;48.836;9.174;2022-11-25T13:46:29;6.03;;;3.45;;
48751;SDS011;34544;48.836;9.174;2022-11-25T13:49:02;9.82;;;5.18;;
48751;SDS011;34544;48.836;9.174;2022-11-25T13:51:31;8.52;;;4.70;;
48751;SDS011;34544;48.836;9.174;2022-11-25T13:54:02;9.68;;;4.22;;
48751;SDS011;34544;48.836;9.174;2022-11-25T14:01:36;12.07;;;5.78;;
48751;SDS011;34544;48.836;9.174;2022-11-25T14:04:15;15.20;;;5.22;;
48751;SDS011;34544;48.836;9.174;2022-11-25T14:07:03;17.52;;;6.15;;
48751;SDS011;34544;48.836;9.174;2022-11-25T14:09:43;14.23;;;4.03;;
48751;SDS011;34544;48.836;9.174;2022-11-25T14:12:59;9.32;;;4.03;;
48751;SDS011;34544;48.836;9.174;2022-11-25T14:21:20;13.25;;;4.72;;
48751;SDS011;34544;48.836;9.174;2022-11-25T14:24:10;10.45;;;2.85;;
48751;SDS011;34544;48.836;9.174;2022-11-25T14:26:39;11.35;;;2.78;;
48751;SDS011;34544;48.836;9.174;2022-11-25T14:31:40;6.22;;;2.20;;
48751;SDS011;34544;48.836;9.174;2022-11-25T14:34:23;8.63;;;3.35;;
48751;SDS011;34544;48.836;9.174;2022-11-25T14:37:38;9.38;;;2.53;;
48751;SDS011;34544;48.836;9.174;2022-11-25T14:39:56;10.43;;;2.40;;
48751;SDS011;34544;48.836;9.174;2022-11-25T14:42:31;8.77;;;2.67;;
48751;SDS011;34544;48.836;9.174;2022-11-25T14:45:01;8.15;;;2.20;;
48751;SDS011;34544;48.836;9.174;2022-11-25T14:47:28;11.85;;;2.55;;
48751;SDS011;34544;48.836;9.174;2022-11-25T14:49:57;4.55;;;1.65;;
48751;SDS011;34544;48.836;9.174;2022-11-25T14:52:25;8.05;;;2.40;;
48751;SDS011;34544;48.836;9.174;2022-11-25T14:54:53;8.18;;;2.60;;
48751;SDS011;34544;48.836;9.174;2022-11-25T14:57:21;8.75;;;3.17;;
48751;SDS011;34544;48.836;9.174;2022-11-25T14:59:49;10.60;;;2.33;;
48751;SDS011;34544;48.836;9.174;2022-11-25T15:02:23;8.63;;;2.30;;
48751;SDS011;34544;48.836;9.174;2022-11-25T15:05:01;5.60;;;2.40;;
48751;SDS011;34544;48.836;9.174;2022-11-25T15:07:30;9.02;;;2.78;;
48751;SDS011;34544;48.836;9.174;2022-11-25T15:09:56;7.82;;;2.38;;
48751;SDS011;34544;48.836;9.174;2022-11-25T15:12:22;13.57;;;3.88;;
48751;SDS011;34544;48.836;9.174;2022-11-25T15:14:52;12.73;;;3.10;;
48751;SDS011;34544;48.836;9.174;2022-11-25T15:19:52;14.15;;;3.40;;
48751;SDS011;34544;48.836;9.174;2022-11-25T15:22:19;11.65;;;3.80;;
48751;SDS011;34544;48.836;9.174;2022-11-25T15:24:45;11.48;;;3.45;;
48751;SDS011;34544;48.836;9.174;2022-11-25T15:27:19;12.20;;;2.97;;
48751;SDS011;34544;48.836;9.174;2022-11-25T15:29:49;9.35;;;2.55;;
48751;SDS011;34544;48.836;9.174;2022-11-25T15:32:26;13.65;;;2.80;;
48751;SDS011;34544;48.836;9.174;2022-11-25T15:34:54;12.98;;;3.47;;
48751;SDS011;34544;48.836;9.174;2022-11-25T15:37:23;10.02;;;2.60;;
48751;SDS011;34544;48.836;9.174;2022-11-25T15:39:49;8.15;;;3.10;;
48751;SDS011;34544;48.836;9.174;2022-11-25T15:42:35;7.47;;;2.85;;
48751;SDS011;34544;48.836;9.174;2022-11-25T15:45:07;11.30;;;2.58;;
48751;SDS011;34544;48.836;9.174;2022-11-25T15:47:35;6.40;;;2.58;;
48751;SDS011;34544;48.836;9.174;2022-11-25T15:50:02;14.15;;;3.15;;
48751;SDS011;34544;48.836;9.174;2022-11-25T15:52:30;14.10;;;4.22;;
48751;SDS011;34544;48.836;9.174;2022-11-25T15:55:06;9.95;;;3.00;;
48751;SDS011;34544;48.836;9.174;2022-11-25T15:57:42;9.23;;;2.92;;
48751;SDS011;34544;48.836;9.174;2022-11-25T16:07:38;14.57;;;3.15;;
48751;SDS011;34544;48.836;9.174;2022-11-25T16:26:33;14.23;;;4.07;;
48751;SDS011;34544;48.836;9.174;2022-11-25T16:29:14;12.25;;;2.92;;
48751;SDS011;34544;48.836;9.174;2022-11-25T16:31:42;14.93;;;3.15;;
48751;SDS011;34544;48.836;9.174;2022-11-25T16:34:12;12.68;;;4.28;;
48751;SDS011;34544;48.836;9.174;2022-11-25T16:36:42;11.82;;;4.05;;
48751;SDS011;34544;48.836;9.174;2022-11-25T16:39:08;16.50;;;3.90;;
48751;SDS011;34544;48.836;9.174;2022-11-25T16:41:34;13.15;;;4.38;;
48751;SDS011;34544;48.836;9.174;2022-11-25T16:44:00;8.95;;;3.45;;
48751;SDS011;34544;48.836;9.174;2022-11-25T16:46:28;13.05;;;3.35;;
48751;SDS011;34544;48.836;9.174;2022-11-25T16:48:54;15.25;;;4.88;;
48751;SDS011;34544;48.836;9.174;2022-11-25T16:51:20;13.45;;;4.63;;
48751;SDS011;34544;48.836;9.174;2022-11-25T16:53:48;10.70;;;3.97;;
48751;SDS011;34544;48.836;9.174;2022-11-25T16:56:22;18.23;;;4.68;;
48751;SDS011;34544;48.836;9.174;2022-11-25T16:58:50;9.98;;;4.53;;
48751;SDS011;34544;48.836;9.174;2022-11-25T17:01:16;19.08;;;7.35;;
48751;SDS011;34544;48.836;9.174;2022-11-25T17:03:43;15.05;;;4.82;;
48751;SDS011;34544;48.836;9.174;2022-11-25T17:06:10;16.50;;;5.63;;
48751;SDS011;34544;48.836;9.174;2022-11-25T17:08:47;19.63;;;6.25;;
48751;SDS011;34544;48.836;9.174;2022-11-25T17:13:58;25.27;;;11.25;;
48751;SDS011;34544;48.836;9.174;2022-11-25T17:16:27;18.58;;;8.40;;